Roberts Field
KRDM : rendu visible

Aérodrome :











RETROUVEZ-NOUS SUR...

 
LOGIN :

S'inscrire | Disclaimer

   EN    FR    IT 

 









Légende :    VFR   VFR Marginal   IFR   IFR Intensif   IFR Très Intensif
Visi : 
Plafond : 
>= 8 km
>= 3000ft
5 à 8 km
1000 à 3000 ft
1500m à 5 km
500 à 1000 ft
800 à 1500m
200 à 500 ft
< 800m
< 200 ft
Symboles :   Orages  Brouillard  Fortes neiges  Fortes précipitations  Vent > 20 kt






- Altitude de l'aérodrome : 3080 ft
- Code IATA : RDM


KRDM - Roberts Field

DERNIER METAR :
  • 120956Z AUTO 00000KT 10SM CLR 02/M02 A3014 RMK AO2 SLP209 T00221022

METARs EXPIRÉS :
  • 120856Z AUTO 10007KT 10SM CLR 02/M02 A3015 RMK AO2 SLP212 T00171022 58025
  • 120756Z AUTO 00000KT 5SM BR CLR M02/M03 A3018 RMK AO2 SLP229 T10221033 401331022

TAF KRDM
Valide du 12 à 10h jusqu'au 13 à 06h UTC


121004Z 1210/1306 14004KT P6SM BKN250
TEMPO 1210/1212 4SM BR
FM121700 VRB05KT P6SM BKN200
FM122200 31007KT P6SM SCT060 BKN090



MET'MAP, la Météo Aéronautique d'un coup d'oeil ! - Copyright ORBIFLY Décembre 2007 - Disclaimer

ORBIFLY MET'MAP TEAM :

Programmation & Développement : Alexandra Zaïnal
Conception & Développement : Baudouin d'Aumeries
Co-Programmation & Développement : Marc-Olivier Méhu
Soutien technique & logistique : Manuel Goepfert

Contact : metmap@orbifly.com




SOURCES & CREDITS :

   NOAA       Earth
Advisory